createdAt,value
2022-09-23T00:00:53.168Z,58.81
2022-09-23T00:01:53.502Z,57.69
2022-09-23T00:02:53.489Z,61.55
2022-09-23T00:03:53.930Z,53.50
2022-09-23T00:04:53.844Z,73.64
2022-09-23T00:05:54.032Z,78.15
2022-09-23T00:06:54.220Z,76.38
2022-09-23T00:07:55.002Z,55.75
2022-09-23T00:08:54.530Z,76.70
2022-09-23T00:09:54.694Z,58.65
2022-09-23T00:10:54.955Z,60.59
2022-09-23T00:11:55.010Z,58.97
2022-09-23T00:12:55.943Z,53.50
2022-09-23T00:13:55.457Z,56.56
2022-09-23T00:14:55.484Z,55.27
2022-09-23T00:15:55.633Z,79.12
2022-09-23T00:16:55.852Z,59.46
2022-09-23T00:17:56.005Z,57.85
2022-09-23T00:18:56.175Z,62.52
2022-09-23T00:19:56.327Z,76.70
2022-09-23T00:20:56.495Z,59.14
2022-09-23T00:21:56.651Z,59.14
2022-09-23T00:22:56.795Z,58.01
2022-09-23T00:23:57.474Z,73.80
2022-09-23T00:24:57.445Z,58.97
2022-09-23T00:25:57.330Z,60.10
2022-09-23T00:26:57.488Z,60.91
2022-09-23T00:27:58.436Z,56.40
2022-09-23T00:28:57.789Z,59.94
2022-09-23T00:29:57.954Z,59.78
2022-09-23T00:30:58.200Z,57.85
2022-09-23T00:31:58.258Z,55.11
2022-09-23T00:32:58.428Z,57.20
2022-09-23T00:33:59.462Z,59.94
2022-09-23T00:34:58.732Z,58.65
2022-09-23T00:35:58.938Z,57.36
2022-09-23T00:36:59.941Z,69.77
2022-09-23T00:37:59.331Z,77.34
2022-09-23T00:38:59.562Z,62.04
2022-09-23T00:39:59.621Z,61.71
2022-09-23T00:40:59.736Z,73.64
2022-09-23T00:41:59.954Z,62.04
2022-09-23T00:43:00.944Z,59.14
2022-09-23T00:44:00.455Z,60.10
2022-09-23T00:45:01.443Z,61.39
2022-09-23T00:46:00.993Z,60.91
2022-09-23T00:47:00.852Z,60.59
2022-09-23T00:48:00.993Z,55.59
2022-09-23T00:49:01.450Z,62.04
2022-09-23T00:50:01.324Z,76.22
2022-09-23T00:51:01.506Z,74.28
2022-09-23T00:52:01.649Z,59.78
2022-09-23T00:53:01.802Z,58.97
2022-09-23T00:54:02.009Z,65.10
2022-09-23T00:55:02.148Z,60.59
2022-09-23T00:56:02.307Z,56.56
2022-09-23T00:57:02.462Z,58.65
2022-09-23T00:58:02.667Z,72.03
2022-09-23T00:59:02.851Z,57.20
2022-09-23T01:00:03.009Z,62.36
2022-09-23T01:01:03.221Z,60.91
2022-09-23T01:02:03.363Z,79.60
2022-09-23T01:03:03.948Z,60.75
2022-09-23T01:04:03.637Z,58.65
2022-09-23T01:05:04.443Z,64.94
2022-09-23T01:06:03.976Z,58.33
2022-09-23T01:07:04.172Z,57.69
2022-09-23T01:08:04.323Z,59.46
2022-09-23T01:09:04.462Z,76.54
2022-09-23T01:10:05.467Z,61.23
2022-09-23T01:11:05.443Z,56.07
2022-09-23T01:12:04.984Z,56.72
2022-09-23T01:13:05.952Z,56.07
2022-09-23T01:14:05.328Z,58.17
2022-09-23T01:15:06.454Z,54.30
2022-09-23T01:16:05.598Z,62.68
2022-09-23T01:17:05.824Z,60.59
2022-09-23T01:18:06.947Z,62.20
2022-09-23T01:19:06.952Z,54.79
2022-09-23T01:20:06.339Z,69.77
2022-09-23T01:21:06.504Z,61.39
2022-09-23T01:22:06.685Z,73.80
2022-09-23T01:23:07.478Z,55.59
2022-09-23T01:24:07.515Z,73.48
2022-09-23T01:25:07.112Z,57.04
2022-09-23T01:26:07.294Z,60.42
2022-09-23T01:27:07.481Z,74.77
2022-09-23T01:28:07.959Z,57.36
2022-09-23T01:29:07.866Z,60.91
2022-09-23T01:30:08.954Z,60.10
2022-09-23T01:31:08.302Z,57.36
2022-09-23T01:32:08.418Z,64.29
2022-09-23T01:33:08.572Z,69.61
2022-09-23T01:34:09.453Z,74.60
2022-09-23T01:35:08.971Z,58.97
2022-09-23T01:36:09.167Z,75.09
2022-09-23T01:37:09.344Z,58.49
2022-09-23T01:38:09.504Z,58.33
2022-09-23T01:39:09.723Z,58.33
2022-09-23T01:40:09.824Z,63.97
2022-09-23T01:41:09.973Z,57.36
2022-09-23T01:42:10.130Z,63.49
2022-09-23T01:43:10.474Z,56.07
2022-09-23T01:44:10.473Z,72.83
2022-09-23T01:45:10.602Z,62.20
2022-09-23T01:46:10.741Z,57.20
2022-09-23T01:47:11.460Z,58.01
2022-09-23T01:48:11.130Z,69.93
2022-09-23T01:49:11.300Z,58.33
2022-09-23T01:50:11.436Z,57.52
2022-09-23T01:51:12.463Z,55.59
2022-09-23T01:52:11.722Z,62.52
2022-09-23T01:53:11.848Z,60.26
2022-09-23T01:54:12.008Z,58.33
2022-09-23T01:55:12.959Z,66.39
2022-09-23T01:56:12.334Z,75.73
2022-09-23T01:57:12.475Z,76.38
2022-09-23T01:58:13.465Z,59.14
2022-09-23T01:59:12.826Z,58.33
2022-09-23T02:00:12.980Z,57.52
2022-09-23T02:01:13.178Z,75.89
2022-09-23T02:02:13.997Z,55.43
2022-09-23T02:03:13.500Z,68.96
2022-09-23T02:04:14.473Z,59.78
2022-09-23T02:05:13.824Z,74.44
2022-09-23T02:06:13.989Z,68.48
2022-09-23T02:07:14.132Z,74.93
2022-09-23T02:08:14.286Z,71.38
2022-09-23T02:09:14.961Z,74.12
2022-09-23T02:10:14.968Z,70.90
2022-09-23T02:11:14.762Z,72.03
2022-09-23T02:12:14.901Z,76.86
2022-09-23T02:13:15.966Z,57.52
2022-09-23T02:14:15.230Z,79.60
2022-09-23T02:15:16.009Z,74.12
2022-09-23T02:16:15.559Z,74.28
2022-09-23T02:17:15.754Z,73.64
2022-09-23T02:18:15.912Z,72.51
2022-09-23T02:19:16.480Z,61.55
2022-09-23T02:20:16.262Z,62.04
2022-09-23T02:21:16.433Z,76.70
2022-09-23T02:22:16.612Z,59.30
2022-09-23T02:23:17.494Z,60.42
2022-09-23T02:24:16.873Z,75.25
2022-09-23T02:25:17.972Z,74.12
2022-09-23T02:26:17.225Z,76.38
2022-09-23T02:27:17.424Z,71.54
2022-09-23T02:28:17.592Z,63.49
2022-09-23T02:29:17.771Z,60.26
2022-09-23T02:30:17.972Z,73.32
2022-09-23T02:31:18.467Z,74.77
2022-09-23T02:32:18.371Z,75.25
2022-09-23T02:33:18.512Z,70.90
2022-09-23T02:34:18.649Z,59.30
2022-09-23T02:35:18.810Z,71.87
2022-09-23T02:36:18.942Z,76.38
2022-09-23T02:37:19.079Z,75.57
2022-09-23T02:38:19.243Z,72.35
2022-09-23T02:39:19.394Z,75.25
2022-09-23T02:40:19.602Z,73.32
2022-09-23T02:41:19.695Z,77.18
2022-09-23T02:42:19.872Z,76.22
2022-09-23T02:43:20.026Z,76.70
2022-09-23T02:44:20.150Z,77.67
2022-09-23T02:45:20.286Z,77.50
2022-09-23T02:46:20.521Z,76.70
2022-09-23T02:47:20.627Z,73.15
2022-09-23T02:48:20.755Z,73.64
2022-09-23T02:49:21.480Z,75.25
2022-09-23T02:50:21.112Z,77.83
2022-09-23T02:51:21.256Z,76.54
2022-09-23T02:52:21.424Z,76.70
2022-09-23T02:53:21.566Z,78.47
2022-09-23T02:54:21.691Z,70.09
2022-09-23T02:55:21.881Z,75.09
2022-09-23T02:56:22.052Z,77.02
2022-09-23T02:57:22.243Z,63.49
2022-09-23T02:58:22.402Z,74.28
2022-09-23T02:59:22.981Z,74.12
2022-09-23T03:00:22.736Z,76.54
2022-09-23T03:01:23.037Z,75.57
2022-09-23T03:02:23.141Z,78.31
2022-09-23T03:03:23.335Z,78.31
2022-09-23T03:04:23.477Z,78.15
2022-09-23T03:05:23.614Z,79.28
2022-09-23T03:06:23.784Z,75.73
2022-09-23T03:07:23.949Z,74.44
2022-09-23T03:08:24.109Z,76.86
2022-09-23T03:09:24.490Z,79.76
2022-09-23T03:10:24.984Z,79.92
2022-09-23T03:11:24.631Z,73.48
2022-09-23T03:12:24.773Z,80.24
2022-09-23T03:13:29.147Z,77.83
2022-09-23T03:14:26.494Z,74.77
2022-09-23T03:15:25.221Z,78.15
2022-09-23T03:16:25.408Z,81.21
2022-09-23T03:17:26.479Z,76.70
2022-09-23T03:18:26.481Z,80.89
2022-09-23T03:19:26.005Z,77.99
2022-09-23T03:20:26.487Z,80.24
2022-09-23T03:21:26.380Z,80.57
2022-09-23T03:22:26.537Z,79.28
2022-09-23T03:23:26.691Z,82.82
2022-09-23T03:24:26.830Z,77.50
2022-09-23T03:25:26.985Z,76.38
2022-09-23T03:26:27.157Z,78.31
2022-09-23T03:27:27.338Z,77.18
2022-09-23T03:28:27.518Z,78.96
2022-09-23T03:29:27.670Z,79.76
2022-09-23T03:30:27.835Z,78.31
2022-09-23T03:31:28.058Z,80.73
2022-09-23T03:32:28.126Z,77.67
2022-09-23T03:33:29.078Z,79.44
2022-09-23T03:34:29.983Z,80.08
2022-09-23T03:35:29.486Z,77.18
2022-09-23T03:36:28.861Z,80.08
2022-09-23T03:37:29.985Z,78.63
2022-09-23T03:38:29.220Z,78.79
2022-09-23T03:39:29.379Z,78.15
2022-09-23T03:40:29.582Z,79.28
2022-09-23T03:41:29.707Z,78.96
2022-09-23T03:42:30.486Z,81.69
2022-09-23T03:43:30.999Z,85.24
2022-09-23T03:44:30.255Z,77.18
2022-09-23T03:45:30.423Z,78.96
2022-09-23T03:46:30.591Z,79.44
2022-09-23T03:47:30.718Z,80.73
2022-09-23T03:48:30.836Z,78.47
2022-09-23T03:49:31.095Z,79.76
2022-09-23T03:50:31.202Z,77.83
2022-09-23T03:51:31.498Z,79.12
2022-09-23T03:52:31.490Z,77.02
2022-09-23T03:53:31.623Z,80.73
2022-09-23T03:54:32.495Z,77.83
2022-09-23T03:55:31.905Z,76.70
2022-09-23T03:56:32.060Z,79.92
2022-09-23T03:57:32.200Z,80.89
2022-09-23T03:58:32.344Z,80.73
2022-09-23T03:59:32.505Z,77.83
2022-09-23T04:00:32.732Z,78.79
2022-09-23T04:01:32.816Z,77.67
2022-09-23T04:02:32.993Z,75.09
2022-09-23T04:03:33.093Z,81.86
2022-09-23T04:04:33.258Z,75.25
2022-09-23T04:05:33.427Z,79.76
2022-09-23T04:06:33.580Z,80.24
2022-09-23T04:07:33.734Z,79.12
2022-09-23T04:08:33.864Z,77.34
2022-09-23T04:09:34.507Z,78.63
2022-09-23T04:10:34.140Z,81.37
2022-09-23T04:11:34.298Z,78.63
2022-09-23T04:12:34.445Z,79.44
2022-09-23T04:13:34.576Z,78.47
2022-09-23T04:14:34.716Z,79.60
2022-09-23T04:15:34.877Z,75.25
2022-09-23T04:16:35.067Z,82.50
2022-09-23T04:17:35.211Z,81.53
2022-09-23T04:18:35.336Z,79.44
2022-09-23T04:19:35.476Z,78.63
2022-09-23T04:20:35.614Z,79.28
2022-09-23T04:21:35.756Z,77.34
2022-09-23T04:22:35.874Z,78.63
2022-09-23T04:23:35.988Z,78.63
2022-09-23T04:24:36.129Z,79.44
2022-09-23T04:25:36.258Z,78.15
2022-09-23T04:26:36.430Z,79.60
2022-09-23T04:27:37.789Z,77.99
2022-09-23T04:28:37.702Z,78.79
2022-09-23T04:29:36.928Z,82.82
2022-09-23T04:30:37.508Z,79.44
2022-09-23T04:31:37.317Z,79.92
2022-09-23T04:32:37.501Z,81.21
2022-09-23T04:33:37.684Z,78.31
2022-09-23T04:34:37.819Z,77.50
2022-09-23T04:35:40.178Z,78.31
2022-09-23T04:36:39.212Z,78.96
2022-09-23T04:37:38.436Z,83.14
2022-09-23T04:38:38.589Z,79.76
2022-09-23T04:39:39.501Z,81.21
2022-09-23T04:40:38.944Z,81.05
2022-09-23T04:41:39.010Z,79.92
2022-09-23T04:42:39.140Z,79.92
2022-09-23T04:43:39.521Z,78.63
2022-09-23T04:44:39.528Z,80.57
2022-09-23T04:45:39.656Z,79.60
2022-09-23T04:46:39.835Z,80.08
2022-09-23T04:47:39.980Z,77.34
2022-09-23T04:48:41.257Z,82.34
2022-09-23T04:49:40.518Z,76.86
2022-09-23T04:50:40.515Z,78.63
2022-09-23T04:51:40.636Z,82.82
2022-09-23T04:52:40.873Z,80.73
2022-09-23T04:53:41.115Z,77.99
2022-09-23T04:54:41.257Z,78.79
2022-09-23T04:55:41.360Z,82.34
2022-09-23T04:56:41.495Z,81.86
2022-09-23T04:57:41.625Z,78.79
2022-09-23T04:58:41.858Z,79.44
2022-09-23T04:59:42.115Z,78.31
2022-09-23T05:00:43.075Z,77.50
2022-09-23T05:01:42.589Z,78.31
2022-09-23T05:02:42.661Z,78.63
2022-09-23T05:03:42.815Z,77.50
2022-09-23T05:04:42.948Z,76.54
2022-09-23T05:05:43.073Z,82.34
2022-09-23T05:06:44.237Z,79.28
2022-09-23T05:07:43.347Z,77.50
2022-09-23T05:08:43.515Z,79.44
2022-09-23T05:09:44.518Z,77.67
2022-09-23T05:10:43.912Z,77.02
2022-09-23T05:11:44.091Z,79.76
2022-09-23T05:12:44.509Z,80.08
2022-09-23T05:13:44.419Z,80.24
2022-09-23T05:14:44.614Z,77.99
2022-09-23T05:15:44.777Z,76.22
2022-09-23T05:16:44.958Z,74.77
2022-09-23T05:17:45.139Z,78.63
2022-09-23T05:18:46.011Z,78.47
2022-09-23T05:19:45.551Z,77.83
2022-09-23T05:20:45.729Z,80.57
2022-09-23T05:21:45.940Z,78.63
2022-09-23T05:22:46.083Z,79.92
2022-09-23T05:23:46.278Z,80.08
2022-09-23T05:24:46.434Z,78.15
2022-09-23T05:25:47.521Z,78.96
2022-09-23T05:26:46.769Z,80.57
2022-09-23T05:27:46.896Z,78.79
2022-09-23T05:28:47.544Z,79.60
2022-09-23T05:29:47.295Z,79.92
2022-09-23T05:30:47.435Z,80.24
2022-09-23T05:31:47.647Z,78.15
2022-09-23T05:32:47.812Z,77.02
2022-09-23T05:33:47.950Z,78.96
2022-09-23T05:34:48.118Z,85.72
2022-09-23T05:35:49.091Z,77.50
2022-09-23T05:36:48.474Z,79.92
2022-09-23T05:37:49.519Z,78.79
2022-09-23T05:38:49.531Z,79.76
2022-09-23T05:39:48.937Z,81.05
2022-09-23T05:40:49.155Z,79.76
2022-09-23T05:41:49.329Z,79.60
2022-09-23T05:42:49.462Z,78.31
2022-09-23T05:43:50.645Z,84.92
2022-09-23T05:44:50.034Z,78.79
2022-09-23T05:45:49.910Z,79.92
2022-09-23T05:46:50.173Z,78.15
2022-09-23T05:47:50.236Z,79.28
2022-09-23T05:48:50.410Z,78.31
2022-09-23T05:49:59.524Z,80.08
2022-09-23T05:50:52.815Z,80.08
2022-09-23T05:51:50.938Z,76.22
2022-09-23T05:52:51.120Z,78.79
2022-09-23T05:53:51.297Z,81.21
2022-09-23T05:54:51.522Z,80.73
2022-09-23T05:55:51.726Z,84.27
2022-09-23T05:56:52.523Z,88.30
2022-09-23T05:57:52.040Z,78.96
2022-09-23T05:58:52.187Z,77.99
2022-09-23T05:59:52.343Z,77.18
2022-09-23T06:00:53.023Z,77.50
2022-09-23T06:01:56.292Z,80.24
2022-09-23T06:02:54.103Z,77.99
2022-09-23T06:03:53.011Z,80.41
2022-09-23T06:04:53.209Z,78.96
2022-09-23T06:05:53.282Z,78.96
2022-09-23T06:06:53.415Z,78.31
2022-09-23T06:07:53.553Z,80.57
2022-09-23T06:08:53.745Z,77.18
2022-09-23T06:09:54.061Z,77.50
2022-09-23T06:10:54.752Z,78.96
2022-09-23T06:11:54.295Z,75.41
2022-09-23T06:12:55.030Z,79.92
2022-09-23T06:13:54.633Z,78.96
2022-09-23T06:14:54.780Z,77.67
2022-09-23T06:15:54.985Z,78.15
2022-09-23T06:16:55.118Z,78.47
2022-09-23T06:17:55.269Z,79.44
2022-09-23T06:18:55.433Z,79.60
2022-09-23T06:19:55.586Z,82.50
2022-09-23T06:20:55.738Z,78.79
2022-09-23T06:21:55.932Z,76.86
2022-09-23T06:22:56.543Z,79.76
2022-09-23T06:23:57.267Z,78.15
2022-09-23T06:24:57.296Z,77.83
2022-09-23T06:25:56.534Z,81.69
2022-09-23T06:26:57.537Z,78.31
2022-09-23T06:27:56.768Z,76.54
2022-09-23T06:28:56.988Z,75.89
2022-09-23T06:29:57.137Z,77.67
2022-09-23T06:30:57.389Z,78.63
2022-09-23T06:31:57.543Z,77.83
2022-09-23T06:32:57.618Z,75.89
2022-09-23T06:34:08.528Z,76.22
2022-09-23T06:35:00.035Z,77.18
2022-09-23T06:35:59.983Z,77.83
2022-09-23T06:37:04.810Z,74.93
2022-09-23T06:37:59.506Z,77.50
2022-09-23T06:38:58.621Z,77.34
2022-09-23T06:39:59.563Z,76.70
2022-09-23T06:40:58.924Z,77.99
2022-09-23T06:41:59.168Z,79.12
2022-09-23T06:42:59.316Z,78.96
2022-09-23T06:43:59.446Z,77.99
2022-09-23T06:45:00.560Z,78.79
2022-09-23T06:45:59.785Z,78.47
2022-09-23T06:46:59.954Z,79.44
2022-09-23T06:48:00.103Z,78.79
2022-09-23T06:49:01.039Z,79.60
2022-09-23T06:50:01.087Z,76.22
2022-09-23T06:51:00.597Z,77.50
2022-09-23T06:52:02.559Z,77.34
2022-09-23T06:53:00.883Z,78.79
2022-09-23T06:54:01.129Z,81.86
2022-09-23T06:55:02.085Z,76.05
2022-09-23T06:56:01.450Z,78.31
2022-09-23T06:57:01.584Z,75.25
2022-09-23T06:58:01.705Z,75.57
2022-09-23T06:59:02.541Z,77.83
2022-09-23T07:00:02.043Z,79.92
2022-09-23T07:01:03.062Z,81.21
2022-09-23T07:02:02.577Z,78.15
2022-09-23T07:03:02.597Z,77.50
2022-09-23T07:04:02.777Z,79.28
2022-09-23T07:05:02.895Z,75.89
2022-09-23T07:06:03.028Z,75.73
2022-09-23T07:07:04.064Z,78.15
2022-09-23T07:08:03.289Z,76.70
2022-09-23T07:09:03.437Z,78.96
2022-09-23T07:10:03.571Z,78.79
2022-09-23T07:11:03.728Z,78.31
2022-09-23T07:12:03.854Z,79.76
2022-09-23T07:13:04.022Z,76.05
2022-09-23T07:14:04.180Z,75.25
2022-09-23T07:15:04.330Z,76.86
2022-09-23T07:16:04.705Z,77.02
2022-09-23T07:17:04.651Z,81.53
2022-09-23T07:18:04.787Z,81.05
2022-09-23T07:19:05.037Z,81.37
2022-09-23T07:20:06.054Z,78.63
2022-09-23T07:21:05.564Z,78.63
2022-09-23T07:22:06.555Z,75.25
2022-09-23T07:23:05.773Z,75.73
2022-09-23T07:24:05.903Z,74.28
2022-09-23T07:25:07.068Z,73.48
2022-09-23T07:26:06.315Z,79.92
2022-09-23T07:27:06.440Z,76.86
2022-09-23T07:28:07.586Z,79.92
2022-09-23T07:29:06.791Z,77.99
2022-09-23T07:30:10.360Z,75.25
2022-09-23T07:31:08.310Z,75.09
2022-09-23T07:32:13.692Z,76.05
2022-09-23T07:33:27.528Z,77.02
2022-09-23T07:34:10.556Z,73.48
2022-09-23T07:35:08.050Z,72.35
2022-09-23T07:36:08.583Z,75.25
2022-09-23T07:37:08.327Z,76.70
2022-09-23T07:38:08.472Z,74.44
2022-09-23T07:39:08.716Z,74.93
2022-09-23T07:40:08.803Z,74.12
2022-09-23T07:41:09.083Z,74.93
2022-09-23T07:42:10.082Z,73.96
2022-09-23T07:43:09.329Z,77.67
2022-09-23T07:44:09.519Z,80.24
2022-09-23T07:45:09.688Z,77.34
2022-09-23T07:46:09.941Z,76.22
2022-09-23T07:47:10.019Z,76.86
2022-09-23T07:48:10.199Z,78.96
2022-09-23T07:49:11.067Z,77.18
2022-09-23T07:50:10.581Z,76.22
2022-09-23T07:51:11.580Z,77.99
2022-09-23T07:52:10.970Z,80.24
2022-09-23T07:53:11.133Z,75.25
2022-09-23T07:54:11.287Z,73.64
2022-09-23T07:55:11.442Z,77.99
2022-09-23T07:56:12.583Z,75.73
2022-09-23T07:57:11.808Z,76.38
2022-09-23T07:58:11.932Z,74.28
2022-09-23T07:59:12.069Z,77.67
2022-09-23T08:00:13.065Z,74.44
2022-09-23T08:01:12.496Z,78.79
2022-09-23T08:02:12.712Z,76.70
2022-09-23T08:03:12.904Z,76.38
2022-09-23T08:04:13.570Z,76.54
2022-09-23T08:05:14.071Z,73.15
2022-09-23T08:06:13.425Z,77.67
2022-09-23T08:07:13.585Z,77.67
2022-09-23T08:08:13.729Z,75.09
2022-09-23T08:09:14.571Z,76.22
2022-09-23T08:10:14.037Z,72.51
2022-09-23T08:11:14.272Z,78.63
2022-09-23T08:12:16.162Z,76.54
2022-09-23T08:13:15.586Z,73.96
2022-09-23T08:14:15.577Z,78.15
2022-09-23T08:15:14.941Z,78.47
2022-09-23T08:16:15.121Z,77.18
2022-09-23T08:17:15.302Z,74.28
2022-09-23T08:18:15.441Z,78.31
2022-09-23T08:19:15.609Z,75.89
2022-09-23T08:20:15.751Z,75.41
2022-09-23T08:21:15.892Z,80.89
2022-09-23T08:22:16.032Z,75.25
2022-09-23T08:23:16.170Z,76.22
2022-09-23T08:24:16.305Z,76.22
2022-09-23T08:25:18.665Z,77.02
2022-09-23T08:26:21.612Z,75.25
2022-09-23T08:27:19.583Z,74.12
2022-09-23T08:28:17.140Z,76.70
2022-09-23T08:29:17.277Z,76.70
2022-09-23T08:30:17.399Z,76.70
2022-09-23T08:31:17.733Z,74.77
2022-09-23T08:32:17.785Z,77.34
2022-09-23T08:33:23.153Z,75.57
2022-09-23T08:34:20.153Z,75.57
2022-09-23T08:35:18.393Z,76.86
2022-09-23T08:36:18.592Z,77.18
2022-09-23T08:37:19.092Z,77.02
2022-09-23T08:38:19.582Z,77.34
2022-09-23T08:39:19.208Z,77.50
2022-09-23T08:40:20.108Z,75.57
2022-09-23T08:41:19.478Z,75.89
2022-09-23T08:42:20.098Z,76.86
2022-09-23T08:43:19.712Z,80.41
2022-09-23T08:44:19.842Z,80.24
2022-09-23T08:45:20.580Z,77.67
2022-09-23T08:46:20.333Z,75.41
2022-09-23T08:47:20.597Z,83.95
2022-09-23T08:48:21.584Z,77.83
2022-09-23T08:49:20.938Z,77.99
2022-09-23T08:50:21.178Z,75.89
2022-09-23T08:51:21.221Z,81.37
2022-09-23T08:52:21.353Z,81.69
2022-09-23T08:53:21.487Z,76.38
2022-09-23T08:54:22.103Z,75.89
2022-09-23T08:55:21.825Z,76.38
2022-09-23T08:56:21.946Z,78.63
2022-09-23T08:57:22.178Z,72.03
2022-09-23T08:58:25.263Z,81.05
2022-09-23T08:59:23.500Z,79.12
2022-09-23T09:00:23.590Z,75.09
2022-09-23T09:01:23.003Z,75.25
2022-09-23T09:02:24.169Z,76.38
2022-09-23T09:03:23.855Z,75.41
2022-09-23T09:04:24.134Z,80.24
2022-09-23T09:05:23.736Z,77.67
2022-09-23T09:06:23.869Z,74.77
2022-09-23T09:07:36.371Z,79.28
2022-09-23T09:08:26.195Z,76.05
2022-09-23T09:09:24.430Z,77.83
2022-09-23T09:10:24.566Z,81.86
2022-09-23T09:11:24.694Z,76.38
2022-09-23T09:12:24.845Z,77.83
2022-09-23T09:13:24.968Z,80.41
2022-09-23T09:14:25.610Z,75.73
2022-09-23T09:15:25.455Z,80.57
2022-09-23T09:16:48.355Z,76.05
2022-09-23T09:17:31.709Z,78.31
2022-09-23T09:18:26.906Z,77.50
2022-09-23T09:19:26.146Z,77.02
2022-09-23T09:20:26.638Z,76.70
2022-09-23T09:21:26.537Z,78.15
2022-09-23T09:22:26.742Z,77.50
2022-09-23T09:23:26.905Z,81.37
2022-09-23T09:24:27.055Z,77.67
2022-09-23T09:25:32.103Z,76.70
2022-09-23T09:26:30.126Z,75.09
2022-09-23T09:27:27.486Z,76.70
2022-09-23T09:28:28.599Z,79.76
2022-09-23T09:29:36.214Z,80.89
2022-09-23T09:30:29.993Z,73.96
2022-09-23T09:31:28.154Z,77.34
2022-09-23T09:32:28.350Z,77.67
2022-09-23T09:33:29.105Z,76.05
2022-09-23T09:34:28.625Z,82.18
2022-09-23T09:35:28.761Z,74.93
2022-09-23T09:36:30.858Z,74.93
2022-09-23T09:37:31.758Z,77.02
2022-09-23T09:38:30.106Z,77.50
2022-09-23T09:39:29.451Z,76.38
2022-09-23T09:40:29.640Z,76.86
2022-09-23T09:41:29.820Z,79.28
2022-09-23T09:42:29.967Z,75.89
2022-09-23T09:43:32.488Z,77.34
2022-09-23T09:44:30.301Z,81.37
2022-09-23T09:45:30.422Z,77.67
2022-09-23T09:46:30.614Z,76.54
2022-09-23T09:47:30.777Z,77.83
2022-09-23T09:48:31.121Z,85.88
2022-09-23T09:49:31.119Z,76.54
2022-09-23T09:50:31.267Z,79.44
2022-09-23T09:51:31.394Z,76.22
2022-09-23T09:52:31.530Z,76.22
2022-09-23T09:53:32.073Z,75.73
2022-09-23T09:54:32.067Z,78.79
2022-09-23T09:55:32.078Z,78.15
2022-09-23T09:56:32.224Z,74.93
2022-09-23T09:57:35.322Z,76.22
2022-09-23T09:58:32.542Z,76.38
2022-09-23T09:59:32.672Z,80.41
2022-09-23T10:00:32.827Z,76.70
2022-09-23T10:01:33.034Z,77.18
2022-09-23T10:02:33.113Z,76.22
2022-09-23T10:03:33.300Z,79.12
2022-09-23T10:04:33.467Z,78.15
2022-09-23T10:05:34.561Z,76.86
2022-09-23T10:06:33.844Z,75.57
2022-09-23T10:07:34.002Z,76.70
2022-09-23T10:08:34.161Z,76.05
2022-09-23T10:09:34.327Z,75.57
2022-09-23T10:10:34.537Z,76.70
2022-09-23T10:11:34.739Z,77.99
2022-09-23T10:12:34.912Z,80.89
2022-09-23T10:13:35.071Z,79.12
2022-09-23T10:14:35.231Z,75.73
2022-09-23T10:15:35.395Z,76.70
2022-09-23T10:16:35.598Z,80.89
2022-09-23T10:17:35.781Z,77.83
2022-09-23T10:18:36.557Z,76.86
2022-09-23T10:19:36.562Z,76.22
2022-09-23T10:20:36.182Z,77.99
2022-09-23T10:21:36.592Z,81.05
2022-09-23T10:22:37.560Z,75.57
2022-09-23T10:23:37.583Z,76.22
2022-09-23T10:24:36.933Z,76.54
2022-09-23T10:25:37.560Z,75.41
2022-09-23T10:26:37.293Z,74.60
2022-09-23T10:27:37.405Z,76.70
2022-09-23T10:28:37.562Z,77.02
2022-09-23T10:29:37.693Z,76.54
2022-09-23T10:30:37.871Z,76.70
2022-09-23T10:31:38.006Z,77.83
2022-09-23T10:32:38.157Z,79.28
2022-09-23T10:33:38.279Z,76.22
2022-09-23T10:34:38.511Z,75.41
2022-09-23T10:35:38.635Z,74.44
2022-09-23T10:36:43.743Z,77.99
2022-09-23T10:37:40.985Z,76.38
2022-09-23T10:38:39.211Z,74.93
2022-09-23T10:39:39.322Z,76.86
2022-09-23T10:40:39.653Z,76.22
2022-09-23T10:41:39.619Z,78.79
2022-09-23T10:42:40.073Z,76.05
2022-09-23T10:43:40.132Z,76.70
2022-09-23T10:44:40.224Z,77.18
2022-09-23T10:45:43.233Z,74.77
2022-09-23T10:46:41.764Z,76.86
2022-09-23T10:47:40.801Z,75.89
2022-09-23T10:48:40.977Z,77.02
2022-09-23T10:49:41.131Z,76.22
2022-09-23T10:50:41.275Z,77.18
2022-09-23T10:51:41.430Z,78.63
2022-09-23T10:52:41.612Z,78.31
2022-09-23T10:53:42.587Z,77.50
2022-09-23T10:54:41.963Z,77.34
2022-09-23T10:55:43.082Z,77.67
2022-09-23T10:56:42.319Z,76.22
2022-09-23T10:57:42.595Z,77.18
2022-09-23T10:58:42.615Z,74.77
2022-09-23T10:59:42.754Z,77.34
2022-09-23T11:00:42.891Z,76.70
2022-09-23T11:01:43.060Z,76.22
2022-09-23T11:02:43.286Z,74.93
2022-09-23T11:03:43.454Z,73.32
2022-09-23T11:04:43.659Z,78.15
2022-09-23T11:05:43.772Z,80.73
2022-09-23T11:06:43.940Z,75.41
2022-09-23T11:07:44.097Z,77.02
2022-09-23T11:08:45.094Z,77.67
2022-09-23T11:09:44.484Z,75.41
2022-09-23T11:10:46.338Z,77.18
2022-09-23T11:11:45.768Z,74.60
2022-09-23T11:12:45.023Z,76.54
2022-09-23T11:13:45.183Z,84.59
2022-09-23T11:14:46.100Z,88.62
2022-09-23T11:15:46.095Z,75.25
2022-09-23T11:16:45.619Z,77.67
2022-09-23T11:17:45.815Z,80.24
2022-09-23T11:18:45.953Z,79.60
2022-09-23T11:19:46.601Z,84.59
2022-09-23T11:20:46.211Z,75.41
2022-09-23T11:21:46.377Z,77.83
2022-09-23T11:22:46.514Z,74.60
2022-09-23T11:23:46.640Z,75.09
2022-09-23T11:24:46.775Z,80.57
2022-09-23T11:25:46.896Z,80.73
2022-09-23T11:26:47.622Z,78.31
2022-09-23T11:27:47.363Z,77.67
2022-09-23T11:28:47.598Z,77.02
2022-09-23T11:29:47.842Z,75.73
2022-09-23T11:30:48.021Z,75.73
2022-09-23T11:31:48.621Z,78.63
2022-09-23T11:32:49.211Z,75.41
2022-09-23T11:33:48.501Z,77.67
2022-09-23T11:34:52.571Z,76.05
2022-09-23T11:35:51.613Z,75.73
2022-09-23T11:36:48.932Z,76.22
2022-09-23T11:37:49.061Z,77.18
2022-09-23T11:38:49.179Z,77.18
2022-09-23T11:39:49.304Z,73.32
2022-09-23T11:40:50.171Z,78.96
2022-09-23T11:41:49.570Z,76.38
2022-09-23T11:42:50.619Z,76.54
2022-09-23T11:43:50.617Z,78.15
2022-09-23T11:44:50.067Z,73.15
2022-09-23T11:45:50.217Z,79.44
2022-09-23T11:46:50.357Z,76.38
2022-09-23T11:47:50.480Z,75.25
2022-09-23T11:48:50.604Z,77.18
2022-09-23T11:49:50.736Z,76.70
2022-09-23T11:50:50.893Z,73.96
2022-09-23T11:51:51.019Z,77.50
2022-09-23T11:52:51.140Z,75.41
2022-09-23T11:53:51.311Z,79.12
2022-09-23T11:54:51.447Z,75.09
2022-09-23T11:55:58.008Z,74.44
2022-09-23T11:56:53.804Z,76.22
2022-09-23T11:57:51.992Z,79.60
2022-09-23T11:58:55.946Z,76.54
2022-09-23T11:59:53.347Z,76.05
2022-09-23T12:00:59.102Z,76.05
2022-09-23T12:01:53.813Z,75.41
2022-09-23T12:03:01.341Z,76.54
2022-09-23T12:03:54.772Z,77.99
2022-09-23T12:04:57.881Z,75.57
2022-09-23T12:05:55.704Z,76.22
2022-09-23T12:06:53.630Z,76.38
2022-09-23T12:07:53.760Z,75.25
2022-09-23T12:08:53.911Z,82.82
2022-09-23T12:09:58.486Z,80.57
2022-09-23T12:10:55.253Z,76.22
2022-09-23T12:11:54.347Z,76.38
2022-09-23T12:12:54.465Z,76.05
2022-09-23T12:13:54.606Z,76.05
2022-09-23T12:14:54.802Z,76.22
2022-09-23T12:15:54.925Z,73.64
2022-09-23T12:16:55.170Z,75.89
2022-09-23T12:17:55.237Z,77.18
2022-09-23T12:18:55.386Z,76.86
2022-09-23T12:19:55.556Z,78.31
2022-09-23T12:20:56.144Z,74.12
2022-09-23T12:21:55.905Z,75.73
2022-09-23T12:22:56.056Z,76.38
2022-09-23T12:23:57.143Z,73.48
2022-09-23T12:24:56.394Z,74.77
2022-09-23T12:25:56.530Z,74.44
2022-09-23T12:26:57.150Z,77.99
2022-09-23T12:27:57.141Z,73.32
2022-09-23T12:28:57.174Z,76.70
2022-09-23T12:29:58.141Z,74.93
2022-09-23T12:30:58.233Z,75.57
2022-09-23T12:31:57.738Z,77.02
2022-09-23T12:32:57.917Z,74.12
2022-09-23T12:33:58.067Z,74.44
2022-09-23T12:34:58.221Z,79.44
2022-09-23T12:35:59.396Z,76.22
2022-09-23T12:36:58.522Z,74.77
2022-09-23T12:37:58.662Z,75.41
2022-09-23T12:38:58.798Z,73.80
2022-09-23T12:39:59.645Z,75.73
2022-09-23T12:40:59.663Z,76.22
2022-09-23T12:41:59.304Z,75.73
2022-09-23T12:42:59.458Z,77.99
2022-09-23T12:43:59.616Z,72.19
2022-09-23T12:44:59.821Z,75.89
2022-09-23T12:45:59.998Z,73.64
2022-09-23T12:47:01.173Z,73.32
2022-09-23T12:48:00.413Z,72.19
2022-09-23T12:49:00.628Z,75.89
2022-09-23T12:50:00.817Z,76.22
2022-09-23T12:51:00.996Z,73.96
2022-09-23T12:52:01.170Z,73.64
2022-09-23T12:53:01.333Z,75.57
2022-09-23T12:54:01.611Z,76.38
2022-09-23T12:55:01.672Z,76.70